createdAt,value
2022-12-14T00:01:49.233Z,8.32
2022-12-14T00:04:16.458Z,10.20
2022-12-14T00:06:42.941Z,10.13
2022-12-14T00:09:12.553Z,10.50
2022-12-14T00:11:39.009Z,10.88
2022-12-14T00:14:05.703Z,8.98
2022-12-14T00:16:35.457Z,11.93
2022-12-14T00:19:02.515Z,11.05
2022-12-14T00:21:32.222Z,12.98
2022-12-14T00:24:00.314Z,15.63
2022-12-14T00:26:30.997Z,15.35
2022-12-14T00:28:58.599Z,18.50
2022-12-14T00:31:25.577Z,18.27
2022-12-14T00:33:53.314Z,19.77
2022-12-14T00:36:19.939Z,17.85
2022-12-14T00:38:46.383Z,19.75
2022-12-14T00:41:13.369Z,15.25
2022-12-14T00:43:40.899Z,16.05
2022-12-14T00:46:07.696Z,12.50
2022-12-14T00:48:38.361Z,12.93
2022-12-14T00:51:06.510Z,12.25
2022-12-14T00:53:32.953Z,10.80
2022-12-14T00:56:08.163Z,12.40
2022-12-14T00:58:38.105Z,13.85
2022-12-14T01:01:07.182Z,12.13
2022-12-14T01:03:34.731Z,14.02
2022-12-14T01:06:01.795Z,9.63
2022-12-14T01:08:35.369Z,9.43
2022-12-14T01:11:13.392Z,10.20
2022-12-14T01:13:49.131Z,8.95
2022-12-14T01:16:16.391Z,9.40
2022-12-14T01:18:43.473Z,9.65
2022-12-14T01:21:25.932Z,11.55
2022-12-14T01:23:58.075Z,10.60
2022-12-14T01:26:26.213Z,9.80
2022-12-14T01:28:56.332Z,10.00
2022-12-14T01:31:29.000Z,11.80
2022-12-14T01:33:56.078Z,10.98
2022-12-14T01:36:33.749Z,17.33
2022-12-14T01:39:04.936Z,12.70
2022-12-14T01:41:37.258Z,9.85
2022-12-14T01:44:23.611Z,12.13
2022-12-14T01:46:53.584Z,10.25
2022-12-14T01:49:31.081Z,8.55
2022-12-14T01:52:29.137Z,12.15
2022-12-14T01:55:15.863Z,13.38
2022-12-14T01:57:51.650Z,9.60
2022-12-14T02:00:18.189Z,12.25
2022-12-14T02:02:54.327Z,14.15
2022-12-14T02:05:22.439Z,15.52
2022-12-14T02:07:51.680Z,13.13
2022-12-14T02:10:21.888Z,11.27
2022-12-14T02:12:54.599Z,12.15
2022-12-14T02:15:21.301Z,10.80
2022-12-14T02:17:48.505Z,9.73
2022-12-14T02:20:21.413Z,11.50
2022-12-14T02:23:14.182Z,12.63
2022-12-14T02:25:43.486Z,12.43
2022-12-14T02:28:27.227Z,8.27
2022-12-14T02:31:04.595Z,8.20
2022-12-14T02:33:44.959Z,11.30
2022-12-14T02:36:31.282Z,10.77
2022-12-14T02:39:16.011Z,11.13
2022-12-14T02:42:03.256Z,11.43
2022-12-14T02:45:01.749Z,9.43
2022-12-14T02:47:54.557Z,13.00
2022-12-14T02:50:39.992Z,10.32
2022-12-14T02:53:21.661Z,11.10
2022-12-14T02:55:53.204Z,11.60
2022-12-14T02:58:28.457Z,12.60
2022-12-14T03:00:56.299Z,10.85
2022-12-14T03:03:26.647Z,12.88
2022-12-14T03:06:14.475Z,14.07
2022-12-14T03:08:45.735Z,11.05
2022-12-14T03:11:19.439Z,12.68
2022-12-14T03:14:04.671Z,13.18
2022-12-14T03:16:39.133Z,14.10
2022-12-14T03:19:29.076Z,14.80
2022-12-14T03:22:00.297Z,13.68
2022-12-14T03:24:39.208Z,9.77
2022-12-14T03:27:16.701Z,11.15
2022-12-14T03:29:48.752Z,12.25
2022-12-14T03:32:23.415Z,12.82
2022-12-14T03:34:55.879Z,13.45
2022-12-14T03:37:38.375Z,13.73
2022-12-14T03:40:09.130Z,14.95
2022-12-14T03:42:42.070Z,14.40
2022-12-14T03:45:23.700Z,16.67
2022-12-14T03:48:04.236Z,14.75
2022-12-14T03:50:43.142Z,16.27
2022-12-14T03:53:12.703Z,14.18
2022-12-14T03:55:46.422Z,13.30
2022-12-14T03:58:42.658Z,13.35
2022-12-14T04:01:27.454Z,17.13
2022-12-14T04:04:04.262Z,16.40
2022-12-14T04:06:49.732Z,16.33
2022-12-14T04:09:22.243Z,19.83
2022-12-14T04:12:14.896Z,22.42
2022-12-14T04:15:08.726Z,23.88
2022-12-14T04:17:57.070Z,19.80
2022-12-14T04:20:28.743Z,21.90
2022-12-14T04:26:01.562Z,21.73
2022-12-14T04:28:56.683Z,25.80
2022-12-14T04:31:28.553Z,28.02
2022-12-14T04:33:59.418Z,22.83
2022-12-14T04:36:33.778Z,23.90
2022-12-14T04:39:09.250Z,19.52
2022-12-14T04:41:42.989Z,24.35
2022-12-14T04:44:24.812Z,21.98
2022-12-14T04:49:40.625Z,22.65
2022-12-14T04:52:33.892Z,20.00
2022-12-14T04:55:06.740Z,21.48
2022-12-14T04:57:48.312Z,26.58
2022-12-14T05:00:15.619Z,19.67
2022-12-14T05:03:19.528Z,23.75
2022-12-14T05:06:11.041Z,19.73
2022-12-14T05:09:05.015Z,19.60
2022-12-14T05:11:53.064Z,19.60
2022-12-14T05:14:26.774Z,19.40
2022-12-14T05:16:53.645Z,18.35
2022-12-14T05:19:20.329Z,16.60
2022-12-14T05:21:49.708Z,18.50
2022-12-14T05:24:17.191Z,14.35
2022-12-14T05:26:44.524Z,14.23
2022-12-14T05:29:11.649Z,15.05
2022-12-14T05:31:38.434Z,15.85
2022-12-14T05:34:04.942Z,15.00
2022-12-14T05:36:31.428Z,14.00
2022-12-14T05:38:57.932Z,13.55
2022-12-14T05:41:24.497Z,16.42
2022-12-14T05:43:50.978Z,12.02
2022-12-14T05:46:18.491Z,12.63
2022-12-14T05:48:49.189Z,11.98
2022-12-14T05:51:16.510Z,12.45
2022-12-14T05:53:43.511Z,13.77
2022-12-14T05:56:11.052Z,15.23
2022-12-14T05:58:38.643Z,13.65
2022-12-14T06:01:09.778Z,12.27
2022-12-14T06:03:39.148Z,15.05
2022-12-14T06:06:08.631Z,13.25
2022-12-14T06:08:37.348Z,19.17
2022-12-14T06:11:23.454Z,15.35
2022-12-14T06:13:50.216Z,15.70
2022-12-14T06:16:22.849Z,15.32
2022-12-14T06:18:54.769Z,16.25
2022-12-14T06:21:25.539Z,14.95
2022-12-14T06:23:52.100Z,16.20
2022-12-14T06:26:18.888Z,14.43
2022-12-14T06:28:45.582Z,13.07
2022-12-14T06:31:19.371Z,12.50
2022-12-14T06:33:46.568Z,12.07
2022-12-14T06:36:17.735Z,13.45
2022-12-14T06:38:44.480Z,16.23
2022-12-14T06:41:12.420Z,13.43
2022-12-14T06:43:38.975Z,13.02
2022-12-14T06:46:15.757Z,14.88
2022-12-14T06:48:42.825Z,10.95
2022-12-14T06:51:09.838Z,16.00
2022-12-14T06:53:36.511Z,16.88
2022-12-14T06:56:10.492Z,13.07
2022-12-14T06:58:37.210Z,11.40
2022-12-14T07:01:13.469Z,11.52
2022-12-14T07:03:41.375Z,9.73
2022-12-14T07:06:08.222Z,13.73
2022-12-14T07:08:37.480Z,10.15
2022-12-14T07:11:06.755Z,15.82
2022-12-14T07:13:34.139Z,13.32
2022-12-14T07:16:01.914Z,11.57
2022-12-14T07:18:31.581Z,15.68
2022-12-14T07:21:00.664Z,13.10
2022-12-14T07:23:29.680Z,12.80
2022-12-14T07:26:27.465Z,11.68
2022-12-14T07:28:54.639Z,10.88
2022-12-14T07:31:24.160Z,14.55
2022-12-14T07:33:55.808Z,12.52
2022-12-14T07:36:23.891Z,13.98
2022-12-14T07:38:51.583Z,14.52
2022-12-14T07:41:24.574Z,13.63
2022-12-14T07:43:53.509Z,13.65
2022-12-14T07:46:24.596Z,14.68
2022-12-14T07:48:53.435Z,18.73
2022-12-14T07:51:22.420Z,13.55
2022-12-14T07:53:50.159Z,12.43
2022-12-14T07:56:22.299Z,13.15
2022-12-14T07:58:49.718Z,16.05
2022-12-14T08:01:18.842Z,11.98
2022-12-14T08:03:51.582Z,12.57
2022-12-14T08:06:19.887Z,13.05
2022-12-14T08:08:47.844Z,13.80
2022-12-14T08:11:16.474Z,15.90
2022-12-14T08:13:43.383Z,16.38
2022-12-14T08:16:12.907Z,18.52
2022-12-14T08:18:40.006Z,12.07
2022-12-14T08:21:08.466Z,17.25
2022-12-14T08:23:35.511Z,14.30
2022-12-14T08:26:03.809Z,14.15
2022-12-14T08:28:31.959Z,14.45
2022-12-14T08:31:04.411Z,14.15
2022-12-14T08:33:31.549Z,14.23
2022-12-14T08:36:14.810Z,17.08
2022-12-14T08:38:41.828Z,17.17
2022-12-14T08:41:13.891Z,18.48
2022-12-14T08:43:41.403Z,13.93
2022-12-14T08:46:09.555Z,18.77
2022-12-14T08:48:38.230Z,15.90
2022-12-14T08:51:07.181Z,15.63
2022-12-14T08:53:34.547Z,16.42
2022-12-14T08:56:10.463Z,15.80
2022-12-14T08:58:38.032Z,15.93
2022-12-14T09:01:13.880Z,17.48
2022-12-14T09:03:42.172Z,15.13
2022-12-14T09:06:11.269Z,18.15
2022-12-14T09:08:37.910Z,19.08
2022-12-14T09:11:05.681Z,20.13
2022-12-14T09:13:33.741Z,23.52
2022-12-14T09:16:06.897Z,17.75
2022-12-14T09:18:34.771Z,16.20
2022-12-14T09:21:01.637Z,18.90
2022-12-14T09:23:30.503Z,20.92
2022-12-14T09:26:16.603Z,21.02
2022-12-14T09:28:46.600Z,26.48
2022-12-14T09:31:15.841Z,21.33
2022-12-14T09:33:42.728Z,21.88
2022-12-14T09:36:18.983Z,23.50
2022-12-14T09:38:51.141Z,28.80
2022-12-14T09:41:30.293Z,24.50
2022-12-14T09:44:18.824Z,30.13
2022-12-14T09:47:17.852Z,30.27
2022-12-14T09:49:54.353Z,24.70
2022-12-14T09:52:29.888Z,23.10
2022-12-14T09:54:58.438Z,18.38
2022-12-14T09:57:34.457Z,22.67
2022-12-14T10:00:01.099Z,19.27
2022-12-14T10:02:52.048Z,21.42
2022-12-14T10:05:42.921Z,23.10
2022-12-14T10:08:25.983Z,24.00
2022-12-14T10:11:22.001Z,24.83
2022-12-14T10:13:55.838Z,22.40
2022-12-14T10:16:35.223Z,22.80
2022-12-14T10:19:20.494Z,22.10
2022-12-14T10:21:55.846Z,23.25
2022-12-14T10:24:27.349Z,20.80
2022-12-14T10:26:55.666Z,24.52
2022-12-14T10:29:26.328Z,23.10
2022-12-14T10:32:03.580Z,22.80
2022-12-14T10:34:32.479Z,22.60
2022-12-14T10:37:23.609Z,21.58
2022-12-14T10:40:17.560Z,19.23
2022-12-14T10:43:15.261Z,20.63
2022-12-14T10:46:20.107Z,25.00
2022-12-14T10:48:56.934Z,25.15
2022-12-14T10:51:38.509Z,25.42
2022-12-14T10:54:25.409Z,21.13
2022-12-14T10:56:51.991Z,22.10
2022-12-14T10:59:18.489Z,21.90
2022-12-14T11:01:48.244Z,28.88
2022-12-14T11:04:33.883Z,23.42
2022-12-14T11:07:05.485Z,24.30
2022-12-14T11:09:32.294Z,21.02
2022-12-14T11:12:08.106Z,24.27
2022-12-14T11:14:36.774Z,23.13
2022-12-14T11:17:04.211Z,25.80
2022-12-14T11:19:30.933Z,28.55
2022-12-14T11:22:18.698Z,25.27
2022-12-14T11:24:48.826Z,25.27
2022-12-14T11:27:21.013Z,26.55
2022-12-14T11:29:50.476Z,30.50
2022-12-14T11:32:24.188Z,27.67
2022-12-14T11:34:57.443Z,29.55
2022-12-14T11:37:26.154Z,31.33
2022-12-14T11:39:56.295Z,25.67
2022-12-14T11:42:24.305Z,29.38
2022-12-14T11:44:54.128Z,29.90
2022-12-14T11:47:28.875Z,31.15
2022-12-14T11:49:57.896Z,29.33
2022-12-14T11:52:37.985Z,30.33
2022-12-14T11:55:14.486Z,25.70
2022-12-14T11:57:59.115Z,32.50
2022-12-14T12:00:46.829Z,32.55
2022-12-14T12:03:19.168Z,30.73
2022-12-14T12:05:46.541Z,29.92
2022-12-14T12:08:23.415Z,29.38
2022-12-14T12:10:51.747Z,32.45
2022-12-14T12:13:24.000Z,33.10
2022-12-14T12:15:55.020Z,32.78
2022-12-14T12:18:46.222Z,34.28
2022-12-14T12:21:22.603Z,36.58
2022-12-14T12:24:02.665Z,29.42
2022-12-14T12:26:34.474Z,34.35
2022-12-14T12:31:48.857Z,31.85
2022-12-14T12:34:21.919Z,30.48
2022-12-14T12:37:24.771Z,33.78
2022-12-14T12:39:42.955Z,34.83
2022-12-14T12:42:22.745Z,31.20
2022-12-14T12:44:56.587Z,34.28
2022-12-14T12:47:46.557Z,31.33
2022-12-14T12:50:17.630Z,32.08
2022-12-14T12:53:04.293Z,33.20
2022-12-14T12:55:41.578Z,35.28
2022-12-14T12:58:18.895Z,33.85
2022-12-14T13:00:51.415Z,31.00
2022-12-14T13:03:32.342Z,34.92
2022-12-14T13:06:11.681Z,33.88
2022-12-14T13:08:42.021Z,38.25
2022-12-14T13:11:27.542Z,30.23
2022-12-14T13:13:59.923Z,33.20
2022-12-14T13:16:38.692Z,34.20
2022-12-14T13:22:24.693Z,31.38
2022-12-14T13:24:58.642Z,36.47
2022-12-14T13:27:25.945Z,33.22
2022-12-14T13:30:09.810Z,32.05
2022-12-14T13:33:23.710Z,33.33
2022-12-14T13:36:31.846Z,36.90
2022-12-14T13:39:20.843Z,29.65
2022-12-14T13:42:02.740Z,32.92
2022-12-14T13:47:22.138Z,32.03
2022-12-14T13:50:35.012Z,32.25
2022-12-14T13:52:47.834Z,35.65
2022-12-14T13:55:39.001Z,35.10
2022-12-14T13:58:34.057Z,39.08
2022-12-14T14:01:07.009Z,34.80
2022-12-14T14:03:36.327Z,39.83
2022-12-14T14:06:14.827Z,41.88
2022-12-14T14:08:50.671Z,35.47
2022-12-14T14:11:39.332Z,34.30
2022-12-14T14:14:27.283Z,36.00
2022-12-14T14:16:59.393Z,34.83
2022-12-14T14:19:28.417Z,36.63
2022-12-14T14:22:27.878Z,39.25
2022-12-14T14:25:12.222Z,35.80
2022-12-14T14:27:42.020Z,37.05
2022-12-14T14:30:38.073Z,33.70
2022-12-14T14:33:45.382Z,39.10
2022-12-14T14:36:33.522Z,35.67
2022-12-14T14:39:55.417Z,32.05
2022-12-14T14:42:21.644Z,39.47
2022-12-14T14:45:11.297Z,35.58
2022-12-14T14:47:40.140Z,35.70
2022-12-14T14:50:15.684Z,36.60
2022-12-14T14:52:42.061Z,38.95
2022-12-14T14:55:52.690Z,37.55
2022-12-14T14:58:26.398Z,39.08
2022-12-14T15:01:08.085Z,38.15
2022-12-14T15:03:57.060Z,41.70
2022-12-14T15:06:36.994Z,38.95
2022-12-14T15:09:07.035Z,36.95
2022-12-14T15:11:45.300Z,36.47
2022-12-14T15:14:26.657Z,37.97
2022-12-14T15:16:53.255Z,42.45
2022-12-14T15:19:21.610Z,38.60
2022-12-14T15:21:54.263Z,37.83
2022-12-14T15:24:22.439Z,38.60
2022-12-14T15:26:50.528Z,42.17
2022-12-14T15:29:22.866Z,44.85
2022-12-14T15:31:59.017Z,45.25
2022-12-14T15:34:26.435Z,43.30
2022-12-14T15:36:53.731Z,45.20
2022-12-14T15:39:39.998Z,49.33
2022-12-14T15:42:16.938Z,46.15
2022-12-14T15:44:51.562Z,49.17
2022-12-14T15:47:29.811Z,50.85
2022-12-14T15:50:35.193Z,53.33
2022-12-14T15:53:13.594Z,56.53
2022-12-14T15:55:44.155Z,59.88
2022-12-14T15:58:31.952Z,63.75
2022-12-14T16:01:21.693Z,64.55
2022-12-14T16:03:52.900Z,57.67
2022-12-14T16:06:20.466Z,65.88
2022-12-14T16:09:05.047Z,56.22
2022-12-14T16:11:44.471Z,61.30
2022-12-14T16:14:24.292Z,55.40
2022-12-14T16:16:51.212Z,61.20
2022-12-14T16:19:28.353Z,61.63
2022-12-14T16:22:22.803Z,61.58
2022-12-14T16:25:08.460Z,69.93
2022-12-14T16:27:40.985Z,77.03
2022-12-14T16:30:23.434Z,66.70
2022-12-14T16:32:53.284Z,70.82
2022-12-14T16:35:26.324Z,48.35
2022-12-14T16:37:58.235Z,60.72
2022-12-14T16:40:32.632Z,65.75
2022-12-14T16:42:59.260Z,65.43
2022-12-14T16:45:46.084Z,70.65
2022-12-14T16:48:22.205Z,76.95
2022-12-14T16:51:01.337Z,76.82
2022-12-14T16:53:34.923Z,81.93
2022-12-14T16:56:07.409Z,76.85
2022-12-14T16:58:35.858Z,71.03
2022-12-14T17:01:06.297Z,72.00
2022-12-14T17:03:34.260Z,73.18
2022-12-14T17:06:06.431Z,71.55
2022-12-14T17:08:36.134Z,72.50
2022-12-14T17:11:03.299Z,74.70
2022-12-14T17:13:30.323Z,80.55
2022-12-14T17:16:06.526Z,89.47
2022-12-14T17:18:39.006Z,87.13
2022-12-14T17:21:07.384Z,89.85
2022-12-14T17:23:39.537Z,83.45
2022-12-14T17:26:06.068Z,85.70
2022-12-14T17:28:35.561Z,100.85
2022-12-14T17:31:03.163Z,87.70
2022-12-14T17:33:31.428Z,113.72
2022-12-14T17:36:10.494Z,111.20
2022-12-14T17:38:44.170Z,116.47
2022-12-14T17:41:24.191Z,90.97
2022-12-14T17:43:56.690Z,97.22
2022-12-14T17:46:25.107Z,84.10
2022-12-14T17:48:51.956Z,83.90
2022-12-14T17:51:25.321Z,79.82
2022-12-14T17:53:57.596Z,75.25
2022-12-14T17:56:24.897Z,83.15
2022-12-14T17:58:54.287Z,77.03
2022-12-14T18:01:25.931Z,98.05
2022-12-14T18:06:19.236Z,101.32
2022-12-14T18:08:46.807Z,107.45
2022-12-14T18:11:19.095Z,92.60
2022-12-14T18:13:48.806Z,85.07
2022-12-14T18:16:20.832Z,75.07
2022-12-14T18:18:47.790Z,72.95
2022-12-14T18:21:19.224Z,65.82
2022-12-14T18:23:46.656Z,61.78
2022-12-14T18:26:20.765Z,64.15
2022-12-14T18:28:52.394Z,53.35
2022-12-14T18:31:29.231Z,59.45
2022-12-14T18:33:55.763Z,59.50
2022-12-14T18:36:26.061Z,60.25
2022-12-14T18:38:55.688Z,47.25
2022-12-14T18:41:24.464Z,44.03
2022-12-14T18:43:51.512Z,53.00
2022-12-14T18:46:18.107Z,48.80
2022-12-14T18:48:45.095Z,46.08
2022-12-14T18:51:32.030Z,45.70
2022-12-14T18:54:00.151Z,51.28
2022-12-14T18:56:28.166Z,63.20
2022-12-14T18:58:56.176Z,65.68
2022-12-14T19:01:24.679Z,60.05
2022-12-14T19:03:51.770Z,54.13
2022-12-14T19:06:43.687Z,51.28
2022-12-14T19:09:07.494Z,44.38
2022-12-14T19:11:40.043Z,43.72
2022-12-14T19:14:06.879Z,54.22
2022-12-14T19:16:33.501Z,56.38
2022-12-14T19:19:00.757Z,64.15
2022-12-14T19:21:29.356Z,61.13
2022-12-14T19:23:56.040Z,64.35
2022-12-14T19:26:22.698Z,61.95
2022-12-14T19:28:49.260Z,64.35
2022-12-14T19:31:15.799Z,60.65
2022-12-14T19:33:42.329Z,52.40
2022-12-14T19:36:09.563Z,49.22
2022-12-14T19:38:36.390Z,56.10
2022-12-14T19:41:13.462Z,58.70
2022-12-14T19:43:39.909Z,57.70
2022-12-14T19:46:07.715Z,55.53
2022-12-14T19:48:34.276Z,63.13
2022-12-14T19:51:11.652Z,54.13
2022-12-14T19:53:40.144Z,45.70
2022-12-14T19:56:07.374Z,40.70
2022-12-14T19:58:33.879Z,38.17
2022-12-14T20:01:00.808Z,42.17
2022-12-14T20:03:28.120Z,39.30
2022-12-14T20:05:58.718Z,38.72
2022-12-14T20:08:27.043Z,36.38
2022-12-14T20:10:53.731Z,37.47
2022-12-14T20:13:25.379Z,41.13
2022-12-14T20:18:53.042Z,40.90
2022-12-14T20:21:22.409Z,39.95
2022-12-14T20:23:49.262Z,40.08
2022-12-14T20:26:18.870Z,50.88
2022-12-14T20:28:53.948Z,41.05
2022-12-14T20:31:22.210Z,43.20
2022-12-14T20:33:49.826Z,39.83
2022-12-14T20:36:18.561Z,36.33
2022-12-14T20:38:53.670Z,34.88
2022-12-14T20:41:20.099Z,29.48
2022-12-14T20:43:46.655Z,30.85
2022-12-14T20:46:36.071Z,28.10
2022-12-14T20:49:09.199Z,29.48
2022-12-14T20:51:37.556Z,26.13
2022-12-14T20:54:06.599Z,27.27
2022-12-14T20:56:35.444Z,28.02
2022-12-14T20:59:03.130Z,31.90
2022-12-14T21:01:29.974Z,32.65
2022-12-14T21:04:00.586Z,34.10
2022-12-14T21:06:27.126Z,38.15
2022-12-14T21:09:05.365Z,36.80
2022-12-14T21:11:52.479Z,40.33
2022-12-14T21:14:36.498Z,48.03
2022-12-14T21:17:06.887Z,47.03
2022-12-14T21:19:36.185Z,46.47
2022-12-14T21:22:07.117Z,42.75
2022-12-14T21:25:07.509Z,32.90
2022-12-14T21:27:26.911Z,27.63
2022-12-14T21:29:54.229Z,24.90
2022-12-14T21:32:22.232Z,27.88
2022-12-14T21:34:49.495Z,19.38
2022-12-14T21:37:16.135Z,19.88
2022-12-14T21:39:46.319Z,21.65
2022-12-14T21:42:20.477Z,19.83
2022-12-14T21:44:49.417Z,21.65
2022-12-14T21:47:19.016Z,24.15
2022-12-14T21:49:47.496Z,28.77
2022-12-14T21:52:16.095Z,28.02
2022-12-14T21:54:47.526Z,27.75
2022-12-14T21:57:41.964Z,30.00
2022-12-14T22:00:10.079Z,36.60
2022-12-14T22:02:36.646Z,32.65
2022-12-14T22:05:03.742Z,39.00
2022-12-14T22:07:32.907Z,31.25
2022-12-14T22:09:59.404Z,29.60
2022-12-14T22:12:26.105Z,34.17
2022-12-14T22:14:52.667Z,31.55
2022-12-14T22:17:19.343Z,35.33
2022-12-14T22:19:45.989Z,42.53
2022-12-14T22:22:18.421Z,50.47
2022-12-14T22:24:51.257Z,51.05
2022-12-14T22:27:18.995Z,45.75
2022-12-14T22:29:45.497Z,46.90
2022-12-14T22:32:12.492Z,35.75
2022-12-14T22:34:42.010Z,29.15
2022-12-14T22:37:13.243Z,24.92
2022-12-14T22:39:42.937Z,22.35
2022-12-14T22:42:09.825Z,22.48
2022-12-14T22:44:36.258Z,22.35
2022-12-14T22:47:02.771Z,17.70
2022-12-14T22:49:29.242Z,20.77
2022-12-14T22:51:56.474Z,21.45
2022-12-14T22:54:25.967Z,21.90
2022-12-14T22:57:13.776Z,22.08
2022-12-14T22:59:58.093Z,20.33
2022-12-14T23:02:25.110Z,20.95
2022-12-14T23:04:51.827Z,19.17
2022-12-14T23:07:18.370Z,19.27
2022-12-14T23:10:03.398Z,15.93
2022-12-14T23:12:48.555Z,15.98
2022-12-14T23:15:33.961Z,15.43
2022-12-14T23:18:20.849Z,16.75
2022-12-14T23:21:06.237Z,17.13
2022-12-14T23:23:58.872Z,16.02
2022-12-14T23:26:44.186Z,16.13
2022-12-14T23:29:29.461Z,18.90
2022-12-14T23:32:16.297Z,16.05
2022-12-14T23:35:00.969Z,15.10
2022-12-14T23:37:45.994Z,17.73
2022-12-14T23:40:30.789Z,16.00
2022-12-14T23:43:15.603Z,15.18
2022-12-14T23:46:04.980Z,18.80
2022-12-14T23:48:50.193Z,16.42
2022-12-14T23:51:35.231Z,18.67
2022-12-14T23:54:19.996Z,15.93
2022-12-14T23:57:08.224Z,15.93
2022-12-14T23:59:53.632Z,19.52
